Time;durP1;ratioP1;P1;durP2;ratioP2;P2;SDS_P1;SDS_P2;PMS_P1;PMS_P2;Temp;Humidity;BMP_temperature;BMP_pressure;BME280_temperature;BME280_humidity;BME280_pressure;Samples;Min_cycle;Max_cycle;Signal;HPM_P1;HPM_P2
2023/09/06 00:01:18;;;;;;;1.83;1.33;;;;;;;;;;5038071;28;20463;-58
2023/09/06 00:03:44;;;;;;;1.95;1.40;;;;;;;;;;5042637;28;20047;-58
2023/09/06 00:06:10;;;;;;;1.73;1.40;;;;;;;;;;5023383;28;20045;-58
2023/09/06 00:08:36;;;;;;;1.77;1.30;;;;;;;;;;5025704;28;20025;-58
2023/09/06 00:11:11;;;;;;;1.73;1.27;;;;;;;;;;5022828;28;20037;-58
2023/09/06 00:13:37;;;;;;;2.17;1.48;;;;;;;;;;5023469;28;20284;-58
2023/09/06 00:16:02;;;;;;;2.47;1.63;;;;;;;;;;5041336;28;20539;-58
2023/09/06 00:18:28;;;;;;;2.42;1.30;;;;;;;;;;5042514;28;20287;-58
2023/09/06 00:24:03;;;;;;;1.60;1.20;;;;;;;;;;5039376;28;20287;-58
2023/09/06 00:26:29;;;;;;;1.95;1.25;;;;;;;;;;5041726;28;20025;-58
2023/09/06 00:28:54;;;;;;;2.33;1.37;;;;;;;;;;5008980;28;20040;-60
2023/09/06 00:31:19;;;;;;;2.08;1.50;;;;;;;;;;5043908;28;20880;-58
2023/09/06 00:33:45;;;;;;;8.00;1.90;;;;;;;;;;5041714;28;20029;-59
2023/09/06 00:36:11;;;;;;;2.65;1.42;;;;;;;;;;5022310;28;20072;-59
2023/09/06 00:38:36;;;;;;;2.30;1.40;;;;;;;;;;5042479;28;20501;-58
2023/09/06 00:41:02;;;;;;;1.70;1.10;;;;;;;;;;5040294;28;20287;-59
2023/09/06 00:43:28;;;;;;;1.87;1.43;;;;;;;;;;5032131;28;20037;-59
2023/09/06 00:46:07;;;;;;;2.53;1.40;;;;;;;;;;5041524;28;20401;-59
2023/09/06 00:48:32;;;;;;;2.65;1.50;;;;;;;;;;5041903;28;20032;-59
2023/09/06 00:50:57;;;;;;;2.10;1.50;;;;;;;;;;5025887;28;20017;-59
2023/09/06 00:53:23;;;;;;;1.60;1.23;;;;;;;;;;5042027;28;20843;-59
2023/09/06 00:55:48;;;;;;;1.90;1.30;;;;;;;;;;5043385;28;20444;-60
2023/09/06 00:58:16;;;;;;;1.50;1.15;;;;;;;;;;5040150;28;20404;-60
2023/09/06 01:00:42;;;;;;;2.10;1.35;;;;;;;;;;5042091;28;20025;-59
2023/09/06 01:03:08;;;;;;;1.70;1.25;;;;;;;;;;5037167;28;20017;-58
2023/09/06 01:05:36;;;;;;;2.27;1.30;;;;;;;;;;5041719;28;20025;-59
2023/09/06 01:08:03;;;;;;;2.08;1.30;;;;;;;;;;5041524;28;20333;-60
2023/09/06 01:10:29;;;;;;;2.10;1.40;;;;;;;;;;5041919;28;20102;-60
2023/09/06 01:12:55;;;;;;;2.70;1.50;;;;;;;;;;5025062;28;20468;-58
2023/09/06 01:15:20;;;;;;;1.65;1.10;;;;;;;;;;5042183;28;20318;-59
2023/09/06 01:17:46;;;;;;;1.67;1.10;;;;;;;;;;5034861;28;20041;-59
2023/09/06 01:20:15;;;;;;;2.43;1.40;;;;;;;;;;5043682;28;20564;-59
2023/09/06 01:22:42;;;;;;;2.90;1.40;;;;;;;;;;5041988;28;20075;-59
2023/09/06 01:25:08;;;;;;;1.98;1.20;;;;;;;;;;5024095;28;20030;-58
2023/09/06 01:27:33;;;;;;;1.90;1.40;;;;;;;;;;5041380;28;20083;-59
2023/09/06 01:29:59;;;;;;;2.65;1.40;;;;;;;;;;5021649;28;20601;-59
2023/09/06 01:32:27;;;;;;;1.60;1.30;;;;;;;;;;5023776;28;20509;-60
2023/09/06 01:34:54;;;;;;;1.92;1.45;;;;;;;;;;5033715;28;20033;-60
2023/09/06 01:37:19;;;;;;;2.08;1.20;;;;;;;;;;5041649;28;20150;-59
2023/09/06 01:39:44;;;;;;;1.63;1.38;;;;;;;;;;5024706;28;20714;-59
2023/09/06 01:42:10;;;;;;;1.47;1.07;;;;;;;;;;5043557;28;20082;-59
2023/09/06 01:44:35;;;;;;;1.67;1.10;;;;;;;;;;5023010;28;20287;-59
2023/09/06 01:47:05;;;;;;;1.90;1.30;;;;;;;;;;5020914;28;20638;-60
2023/09/06 01:49:30;;;;;;;1.38;1.00;;;;;;;;;;5041069;28;20470;-60
2023/09/06 01:51:57;;;;;;;1.77;1.15;;;;;;;;;;5025307;28;20475;-60
2023/09/06 01:54:23;;;;;;;2.85;1.33;;;;;;;;;;5036113;28;20049;-59
2023/09/06 01:56:48;;;;;;;1.60;1.20;;;;;;;;;;5041053;28;20567;-59
2023/09/06 01:59:13;;;;;;;2.03;1.40;;;;;;;;;;5040802;28;20033;-60
2023/09/06 02:01:38;;;;;;;1.90;1.30;;;;;;;;;;5035496;28;20283;-61
2023/09/06 02:04:05;;;;;;;2.35;1.30;;;;;;;;;;5033342;28;20374;-60
2023/09/06 02:06:31;;;;;;;1.75;1.20;;;;;;;;;;5024771;28;20040;-59
2023/09/06 02:08:56;;;;;;;1.90;1.17;;;;;;;;;;5020321;28;20052;-59
2023/09/06 02:11:31;;;;;;;2.10;1.20;;;;;;;;;;5038480;28;20276;-60
2023/09/06 02:13:56;;;;;;;1.70;1.30;;;;;;;;;;5037930;28;20108;-59
2023/09/06 02:16:22;;;;;;;1.63;1.13;;;;;;;;;;5046297;28;20477;-59
2023/09/06 02:18:47;;;;;;;1.73;1.33;;;;;;;;;;5046367;28;20402;-59
2023/09/06 02:21:12;;;;;;;2.47;1.33;;;;;;;;;;5045912;28;20119;-59
2023/09/06 02:23:37;;;;;;;1.90;1.30;;;;;;;;;;5045010;28;20287;-59
2023/09/06 02:26:09;;;;;;;1.83;1.30;;;;;;;;;;5046337;28;20884;-59
2023/09/06 02:28:35;;;;;;;1.80;1.35;;;;;;;;;;5043789;28;20299;-60
2023/09/06 02:31:00;;;;;;;1.98;1.20;;;;;;;;;;5026894;28;20048;-59
2023/09/06 02:33:28;;;;;;;1.70;1.17;;;;;;;;;;5026298;28;20040;-61
2023/09/06 02:35:53;;;;;;;1.70;1.08;;;;;;;;;;5046266;28;20686;-58
2023/09/06 02:38:21;;;;;;;2.63;1.17;;;;;;;;;;5044709;28;20466;-61
2023/09/06 02:40:46;;;;;;;1.77;1.20;;;;;;;;;;5016222;28;20040;-60
2023/09/06 02:43:13;;;;;;;2.03;1.20;;;;;;;;;;5033917;28;20041;-59
2023/09/06 02:45:38;;;;;;;1.25;0.93;;;;;;;;;;5033223;28;20029;-58
2023/09/06 02:48:07;;;;;;;2.95;1.40;;;;;;;;;;5031193;28;20067;-58
2023/09/06 02:50:34;;;;;;;2.33;1.10;;;;;;;;;;5031639;28;20033;-59
2023/09/06 02:53:01;;;;;;;1.77;1.17;;;;;;;;;;5038092;28;20037;-58
2023/09/06 02:55:27;;;;;;;1.52;1.10;;;;;;;;;;5040781;28;20049;-58
2023/09/06 02:57:52;;;;;;;1.70;1.10;;;;;;;;;;5042282;28;20040;-58
2023/09/06 03:00:27;;;;;;;1.75;1.20;;;;;;;;;;5043334;28;20041;-58
2023/09/06 03:02:58;;;;;;;2.38;1.30;;;;;;;;;;5045507;28;20033;-57
2023/09/06 03:05:30;;;;;;;1.60;1.27;;;;;;;;;;5044253;28;20194;-60
2023/09/06 03:07:56;;;;;;;1.77;1.10;;;;;;;;;;5041899;28;20064;-58
2023/09/06 03:10:22;;;;;;;2.20;1.17;;;;;;;;;;5026147;28;20075;-58
2023/09/06 03:12:54;;;;;;;1.67;1.23;;;;;;;;;;5027681;28;20803;-57
2023/09/06 03:15:22;;;;;;;1.65;1.20;;;;;;;;;;5038988;28;20029;-58
2023/09/06 03:17:47;;;;;;;1.67;1.27;;;;;;;;;;5044070;28;20043;-58
2023/09/06 03:20:19;;;;;;;1.67;1.17;;;;;;;;;;5021809;28;20034;-58
2023/09/06 03:22:49;;;;;;;1.65;1.33;;;;;;;;;;5043982;28;20808;-59
2023/09/06 03:25:15;;;;;;;2.28;1.20;;;;;;;;;;5042962;28;20391;-61
2023/09/06 03:27:42;;;;;;;2.03;1.40;;;;;;;;;;5040274;28;20126;-59
2023/09/06 03:30:07;;;;;;;2.70;1.27;;;;;;;;;;5042460;28;20311;-58
2023/09/06 03:32:33;;;;;;;1.52;1.20;;;;;;;;;;5035753;28;20462;-58
2023/09/06 03:34:58;;;;;;;2.33;1.40;;;;;;;;;;5032348;28;20049;-60
2023/09/06 03:37:23;;;;;;;1.85;1.33;;;;;;;;;;5045568;28;20517;-60
2023/09/06 03:39:53;;;;;;;2.10;1.50;;;;;;;;;;5041869;28;20049;-58
2023/09/06 03:42:18;;;;;;;1.83;1.40;;;;;;;;;;5034191;28;20017;-58
2023/09/06 03:44:46;;;;;;;1.70;1.23;;;;;;;;;;5031495;28;20037;-60
2023/09/06 03:47:15;;;;;;;1.45;1.23;;;;;;;;;;5033959;28;20033;-59
2023/09/06 03:49:52;;;;;;;1.90;1.30;;;;;;;;;;5026654;28;20481;-59
2023/09/06 03:52:17;;;;;;;1.88;1.42;;;;;;;;;;5043569;28;20051;-64
2023/09/06 03:54:43;;;;;;;1.90;1.30;;;;;;;;;;5043094;28;20033;-61
2023/09/06 03:57:12;;;;;;;1.92;1.38;;;;;;;;;;5044349;28;20501;-60
2023/09/06 03:59:38;;;;;;;1.63;1.15;;;;;;;;;;5037325;28;20041;-59
2023/09/06 04:02:07;;;;;;;1.70;1.20;;;;;;;;;;5014691;28;20413;-59
2023/09/06 04:04:32;;;;;;;1.70;1.20;;;;;;;;;;5042880;28;20033;-59
2023/09/06 04:06:57;;;;;;;1.83;1.10;;;;;;;;;;5042967;28;20667;-59
2023/09/06 04:09:28;;;;;;;1.40;1.10;;;;;;;;;;5041667;28;20036;-59
2023/09/06 04:11:54;;;;;;;2.10;1.30;;;;;;;;;;5027935;28;20771;-59
2023/09/06 04:14:19;;;;;;;2.20;1.50;;;;;;;;;;5025913;28;20102;-58
2023/09/06 04:16:44;;;;;;;2.00;1.58;;;;;;;;;;5036510;28;20053;-58
2023/09/06 04:19:10;;;;;;;1.43;1.20;;;;;;;;;;5042432;28;20140;-59
2023/09/06 04:21:37;;;;;;;2.13;1.40;;;;;;;;;;5023553;28;20682;-58
2023/09/06 04:24:03;;;;;;;1.77;1.30;;;;;;;;;;5041160;28;20033;-58
2023/09/06 04:26:33;;;;;;;1.80;1.13;;;;;;;;;;5025928;28;20122;-59
2023/09/06 04:28:59;;;;;;;2.10;1.52;;;;;;;;;;5025659;28;20040;-59
2023/09/06 04:31:24;;;;;;;1.87;1.43;;;;;;;;;;5009388;28;20111;-58
2023/09/06 04:33:49;;;;;;;1.88;1.30;;;;;;;;;;5040138;28;20283;-59
2023/09/06 04:36:14;;;;;;;2.38;1.35;;;;;;;;;;5037857;28;20217;-58
2023/09/06 04:38:40;;;;;;;2.07;1.50;;;;;;;;;;5041661;28;20587;-58
2023/09/06 04:41:05;;;;;;;1.77;1.30;;;;;;;;;;5043016;28;20702;-59
2023/09/06 04:43:30;;;;;;;1.45;1.10;;;;;;;;;;5044101;28;20090;-59
2023/09/06 04:45:56;;;;;;;1.80;1.50;;;;;;;;;;5041352;28;20064;-59
2023/09/06 04:48:23;;;;;;;2.10;1.38;;;;;;;;;;5036959;28;20407;-58
2023/09/06 04:50:49;;;;;;;1.85;1.40;;;;;;;;;;5036260;28;20320;-60
2023/09/06 04:53:17;;;;;;;1.60;1.20;;;;;;;;;;5022899;28;20548;-59
2023/09/06 04:55:44;;;;;;;1.55;1.20;;;;;;;;;;5042711;28;20060;-60
2023/09/06 04:58:10;;;;;;;1.77;1.40;;;;;;;;;;5042552;28;20025;-60
2023/09/06 05:00:37;;;;;;;1.88;1.38;;;;;;;;;;5043263;28;20095;-59
2023/09/06 05:03:03;;;;;;;2.45;1.30;;;;;;;;;;5020716;28;20037;-59
2023/09/06 05:05:28;;;;;;;2.30;1.35;;;;;;;;;;5039547;28;20110;-59
2023/09/06 05:07:53;;;;;;;1.67;1.20;;;;;;;;;;5042127;28;20045;-59
2023/09/06 05:10:19;;;;;;;2.57;1.60;;;;;;;;;;5043079;28;20726;-60
2023/09/06 05:12:45;;;;;;;2.00;1.33;;;;;;;;;;5042118;28;20326;-59
2023/09/06 05:15:12;;;;;;;2.60;1.48;;;;;;;;;;5038061;28;21037;-59
2023/09/06 05:17:37;;;;;;;2.63;1.40;;;;;;;;;;5041560;28;20116;-59
2023/09/06 05:20:21;;;;;;;2.35;1.45;;;;;;;;;;5040667;28;20120;-60
2023/09/06 05:22:47;;;;;;;2.20;1.42;;;;;;;;;;5041731;28;20060;-59
2023/09/06 05:25:12;;;;;;;2.27;1.40;;;;;;;;;;5040768;28;20033;-59
2023/09/06 05:27:37;;;;;;;2.60;1.30;;;;;;;;;;5042757;28;20033;-60
2023/09/06 05:30:03;;;;;;;2.57;1.60;;;;;;;;;;5024908;28;20710;-59
2023/09/06 05:32:28;;;;;;;1.92;1.38;;;;;;;;;;5030544;28;20290;-59
2023/09/06 05:34:53;;;;;;;2.17;1.63;;;;;;;;;;5032133;28;20037;-59
2023/09/06 05:37:18;;;;;;;1.80;1.13;;;;;;;;;;5041258;28;20842;-59
2023/09/06 05:39:44;;;;;;;2.05;1.20;;;;;;;;;;5043005;28;20094;-61
2023/09/06 05:42:09;;;;;;;2.40;1.50;;;;;;;;;;5039683;28;20109;-59
2023/09/06 05:44:34;;;;;;;1.97;1.37;;;;;;;;;;5024390;28;20029;-59
2023/09/06 05:46:59;;;;;;;2.87;1.40;;;;;;;;;;5041665;28;21011;-59
2023/09/06 05:49:25;;;;;;;2.10;1.30;;;;;;;;;;5043701;28;20041;-58
2023/09/06 05:51:50;;;;;;;3.60;1.55;;;;;;;;;;5045320;28;20287;-58
2023/09/06 05:54:15;;;;;;;3.97;1.60;;;;;;;;;;5045500;28;20049;-58
2023/09/06 05:56:40;;;;;;;2.33;1.43;;;;;;;;;;5028110;28;20292;-60
2023/09/06 05:59:06;;;;;;;2.53;1.53;;;;;;;;;;5045023;28;20826;-60
2023/09/06 06:01:31;;;;;;;2.33;1.60;;;;;;;;;;5045932;28;20368;-60
2023/09/06 06:03:56;;;;;;;1.87;1.40;;;;;;;;;;5045133;28;20037;-59
2023/09/06 06:06:22;;;;;;;1.77;1.30;;;;;;;;;;5044779;28;20037;-59
2023/09/06 06:08:48;;;;;;;1.90;1.15;;;;;;;;;;5044848;28;20291;-58
2023/09/06 06:11:13;;;;;;;2.30;1.30;;;;;;;;;;5044017;28;20067;-59
2023/09/06 06:13:38;;;;;;;2.97;1.70;;;;;;;;;;5035336;28;20046;-60
2023/09/06 06:16:06;;;;;;;2.15;1.60;;;;;;;;;;5015653;28;20090;-59
2023/09/06 06:18:31;;;;;;;1.98;1.30;;;;;;;;;;5036123;28;20044;-61
2023/09/06 06:20:58;;;;;;;2.00;1.30;;;;;;;;;;5032718;28;20494;-59
2023/09/06 06:23:23;;;;;;;2.03;1.27;;;;;;;;;;5026447;28;20053;-59
2023/09/06 06:25:48;;;;;;;2.33;1.67;;;;;;;;;;5027689;28;20413;-62
2023/09/06 06:28:14;;;;;;;3.03;1.40;;;;;;;;;;5039670;28;20116;-60
2023/09/06 06:30:39;;;;;;;1.67;1.37;;;;;;;;;;5027490;28;20872;-60
2023/09/06 06:33:04;;;;;;;2.43;1.53;;;;;;;;;;5043911;28;20587;-59
2023/09/06 06:35:30;;;;;;;1.95;1.33;;;;;;;;;;5043826;28;20338;-60
2023/09/06 06:37:55;;;;;;;1.70;1.30;;;;;;;;;;5039513;28;20119;-59
2023/09/06 06:40:20;;;;;;;1.40;1.00;;;;;;;;;;5043003;28;20044;-59
2023/09/06 06:42:45;;;;;;;1.70;1.30;;;;;;;;;;5019581;28;20356;-60
2023/09/06 06:45:11;;;;;;;4.80;2.97;;;;;;;;;;5011764;28;20290;-60
2023/09/06 06:47:36;;;;;;;2.10;1.60;;;;;;;;;;5033875;28;20560;-59
2023/09/06 06:50:05;;;;;;;1.92;1.40;;;;;;;;;;5046001;28;20333;-59
2023/09/06 06:52:31;;;;;;;2.05;1.48;;;;;;;;;;5044628;28;20033;-61
2023/09/06 06:54:56;;;;;;;2.00;1.30;;;;;;;;;;5046849;28;20090;-60
2023/09/06 06:57:21;;;;;;;2.77;1.70;;;;;;;;;;5046307;28;20813;-59
2023/09/06 06:59:47;;;;;;;2.15;1.58;;;;;;;;;;5045896;28;20341;-59
2023/09/06 07:02:13;;;;;;;2.10;1.30;;;;;;;;;;5023570;28;20107;-59
2023/09/06 07:04:38;;;;;;;2.45;1.60;;;;;;;;;;5025611;28;20307;-60
2023/09/06 07:07:03;;;;;;;3.00;1.53;;;;;;;;;;5043524;28;20037;-60
2023/09/06 07:09:28;;;;;;;2.47;1.57;;;;;;;;;;5026540;28;20640;-61
2023/09/06 07:11:54;;;;;;;2.03;1.40;;;;;;;;;;5039845;28;20290;-59
2023/09/06 07:14:20;;;;;;;3.00;1.73;;;;;;;;;;5044220;28;20494;-59
2023/09/06 07:16:45;;;;;;;2.00;1.10;;;;;;;;;;5027300;28;20326;-59
2023/09/06 07:19:11;;;;;;;1.80;1.40;;;;;;;;;;5043462;28;20496;-61
2023/09/06 07:21:36;;;;;;;2.40;1.70;;;;;;;;;;5043380;28;20543;-60
2023/09/06 07:24:01;;;;;;;2.30;1.40;;;;;;;;;;5024508;28;20041;-59
2023/09/06 07:26:26;;;;;;;2.17;1.63;;;;;;;;;;5040186;28;20780;-60
2023/09/06 07:28:52;;;;;;;4.77;2.37;;;;;;;;;;5039134;28;20288;-60
2023/09/06 07:31:17;;;;;;;8.13;3.25;;;;;;;;;;5044448;28;20307;-59
2023/09/06 07:33:43;;;;;;;6.47;3.28;;;;;;;;;;5043017;28;20037;-60
2023/09/06 07:36:08;;;;;;;4.53;2.83;;;;;;;;;;5026493;28;20440;-60
2023/09/06 07:38:33;;;;;;;4.03;2.70;;;;;;;;;;5043125;28;20041;-58
2023/09/06 07:40:59;;;;;;;3.08;2.35;;;;;;;;;;5041201;28;20298;-61
2023/09/06 07:43:25;;;;;;;3.38;2.25;;;;;;;;;;5043304;28;20041;-59
2023/09/06 07:45:50;;;;;;;4.47;2.47;;;;;;;;;;5036811;28;20037;-58
2023/09/06 07:48:15;;;;;;;3.90;2.43;;;;;;;;;;5032820;28;20140;-58
2023/09/06 07:50:41;;;;;;;5.93;2.50;;;;;;;;;;5024804;28;20044;-60
2023/09/06 07:53:06;;;;;;;3.67;2.20;;;;;;;;;;5025622;28;20298;-59
2023/09/06 07:55:31;;;;;;;3.97;2.00;;;;;;;;;;5041590;28;20091;-58
2023/09/06 07:57:59;;;;;;;3.90;2.00;;;;;;;;;;5042129;28;20295;-58
2023/09/06 08:00:28;;;;;;;3.00;2.17;;;;;;;;;;5042847;28;20144;-58
2023/09/06 08:02:54;;;;;;;5.18;2.25;;;;;;;;;;5040594;28;20048;-59
2023/09/06 08:05:19;;;;;;;4.28;2.30;;;;;;;;;;5024797;28;20021;-59
2023/09/06 08:07:45;;;;;;;5.03;2.50;;;;;;;;;;5042527;28;20051;-59
2023/09/06 08:10:12;;;;;;;3.40;2.13;;;;;;;;;;5042600;28;20307;-59
2023/09/06 08:12:37;;;;;;;3.58;2.22;;;;;;;;;;5042782;28;20362;-58
2023/09/06 08:15:03;;;;;;;3.90;2.08;;;;;;;;;;5040807;28;20708;-58
2023/09/06 08:17:32;;;;;;;3.97;2.63;;;;;;;;;;5033431;28;20057;-59
2023/09/06 08:19:57;;;;;;;2.72;1.73;;;;;;;;;;5041923;28;20033;-58
2023/09/06 08:22:23;;;;;;;3.13;2.20;;;;;;;;;;5044005;28;20142;-59
2023/09/06 08:24:48;;;;;;;3.60;2.30;;;;;;;;;;5042744;28;20043;-59
2023/09/06 08:27:13;;;;;;;3.00;2.00;;;;;;;;;;5042677;28;20267;-58
2023/09/06 08:29:39;;;;;;;3.13;2.00;;;;;;;;;;5043321;28;20041;-60
2023/09/06 08:32:04;;;;;;;2.50;1.80;;;;;;;;;;5042040;28;20083;-59
2023/09/06 08:34:30;;;;;;;2.95;1.90;;;;;;;;;;5041634;28;20060;-59
2023/09/06 08:36:56;;;;;;;2.20;1.80;;;;;;;;;;5041353;28;20056;-58
2023/09/06 08:39:21;;;;;;;3.13;2.13;;;;;;;;;;5041910;28;20033;-59
2023/09/06 08:41:48;;;;;;;2.90;2.00;;;;;;;;;;5043073;28;20037;-60
2023/09/06 08:44:25;;;;;;;3.42;1.90;;;;;;;;;;5018937;28;20298;-59
2023/09/06 08:46:52;;;;;;;5.03;1.90;;;;;;;;;;5021929;28;20029;-59
2023/09/06 08:49:17;;;;;;;2.90;1.73;;;;;;;;;;5035015;28;20029;-59
2023/09/06 08:51:42;;;;;;;2.45;1.90;;;;;;;;;;5024725;28;20028;-59
2023/09/06 08:54:08;;;;;;;3.28;2.25;;;;;;;;;;5043497;28;20043;-59
2023/09/06 08:56:33;;;;;;;2.67;1.80;;;;;;;;;;5043044;28;20048;-59
2023/09/06 08:58:59;;;;;;;4.20;2.15;;;;;;;;;;5041834;28;20297;-59
2023/09/06 09:01:24;;;;;;;2.97;1.98;;;;;;;;;;5035672;28;20559;-59
2023/09/06 09:03:49;;;;;;;3.42;1.90;;;;;;;;;;5015039;28;20079;-59
2023/09/06 09:06:15;;;;;;;3.07;1.90;;;;;;;;;;5021977;28;20371;-59
2023/09/06 09:08:40;;;;;;;2.88;1.70;;;;;;;;;;5035828;28;20372;-59
2023/09/06 09:11:08;;;;;;;2.47;2.00;;;;;;;;;;5039507;28;20093;-58
2023/09/06 09:13:33;;;;;;;2.33;1.83;;;;;;;;;;5037882;28;20032;-60
2023/09/06 09:15:59;;;;;;;3.13;1.83;;;;;;;;;;5014857;28;20040;-59
2023/09/06 09:18:24;;;;;;;4.13;2.20;;;;;;;;;;5022071;28;20311;-59
2023/09/06 09:20:49;;;;;;;2.60;1.90;;;;;;;;;;5041556;28;20358;-60
2023/09/06 09:23:14;;;;;;;3.37;2.27;;;;;;;;;;5043400;28;20500;-59
2023/09/06 09:25:49;;;;;;;2.72;1.65;;;;;;;;;;5046899;28;20493;-59
2023/09/06 09:28:14;;;;;;;2.10;1.65;;;;;;;;;;5037922;28;20060;-60
2023/09/06 09:30:39;;;;;;;3.03;1.95;;;;;;;;;;5041340;28;23193;-59
2023/09/06 09:33:05;;;;;;;2.60;1.80;;;;;;;;;;5046742;28;20560;-59
2023/09/06 09:35:31;;;;;;;2.80;1.80;;;;;;;;;;5045560;28;20331;-59
2023/09/06 09:37:56;;;;;;;3.60;1.98;;;;;;;;;;5043095;28;20295;-59
2023/09/06 09:40:22;;;;;;;3.67;2.10;;;;;;;;;;5032790;28;20048;-59
2023/09/06 09:42:53;;;;;;;2.15;1.73;;;;;;;;;;5043894;28;20169;-60
2023/09/06 09:45:19;;;;;;;3.45;2.28;;;;;;;;;;5045621;28;20055;-60
2023/09/06 09:47:44;;;;;;;3.53;2.23;;;;;;;;;;5028412;28;20476;-60
2023/09/06 09:50:09;;;;;;;2.80;1.90;;;;;;;;;;5042842;28;20275;-59
2023/09/06 09:52:34;;;;;;;2.73;1.90;;;;;;;;;;5045363;28;20291;-59
2023/09/06 09:55:00;;;;;;;3.07;2.17;;;;;;;;;;5046755;28;21080;-59
2023/09/06 09:57:26;;;;;;;3.30;2.10;;;;;;;;;;5045606;28;20309;-59
2023/09/06 09:59:51;;;;;;;2.38;1.70;;;;;;;;;;5041320;28;20306;-59
2023/09/06 10:02:53;;;;;;;2.53;1.90;;;;;;;;;;5027998;28;20480;-61
2023/09/06 10:05:19;;;;;;;3.20;2.08;;;;;;;;;;5044972;28;20041;-60
2023/09/06 10:07:44;;;;;;;2.70;1.92;;;;;;;;;;5024929;28;20041;-60
2023/09/06 10:10:10;;;;;;;2.60;1.80;;;;;;;;;;5040528;28;20037;-59
2023/09/06 10:12:36;;;;;;;4.07;2.20;;;;;;;;;;5044240;28;20645;-60
2023/09/06 10:15:02;;;;;;;2.55;1.98;;;;;;;;;;5016130;28;20045;-59
2023/09/06 10:17:27;;;;;;;2.95;1.95;;;;;;;;;;5030983;28;20555;-59
2023/09/06 10:19:53;;;;;;;2.97;2.10;;;;;;;;;;5038904;28;20087;-59
2023/09/06 10:22:18;;;;;;;3.40;2.03;;;;;;;;;;5044293;28;20033;-59
2023/09/06 10:24:49;;;;;;;2.70;1.92;;;;;;;;;;5044931;28;20029;-58
2023/09/06 10:27:16;;;;;;;3.03;1.88;;;;;;;;;;5023514;28;20076;-58
2023/09/06 10:29:49;;;;;;;3.65;2.30;;;;;;;;;;5037981;28;20061;-60
2023/09/06 10:32:14;;;;;;;2.55;1.80;;;;;;;;;;5043863;28;20066;-60
2023/09/06 10:34:42;;;;;;;3.00;1.90;;;;;;;;;;5027383;28;20586;-59
2023/09/06 10:37:08;;;;;;;3.10;2.30;;;;;;;;;;5044136;28;21831;-59
2023/09/06 10:39:33;;;;;;;3.42;1.77;;;;;;;;;;5044642;28;20081;-60
2023/09/06 10:42:13;;;;;;;3.00;2.00;;;;;;;;;;5025428;28;20041;-59
2023/09/06 10:45:00;;;;;;;2.55;2.08;;;;;;;;;;5040321;28;20276;-59
2023/09/06 10:47:26;;;;;;;2.88;2.05;;;;;;;;;;5037461;28;20053;-59
2023/09/06 10:50:09;;;;;;;2.55;1.95;;;;;;;;;;5044662;28;20052;-60
2023/09/06 10:52:53;;;;;;;3.25;2.10;;;;;;;;;;5044906;28;20040;-60
2023/09/06 10:55:22;;;;;;;2.80;1.92;;;;;;;;;;5008629;28;20037;-59
2023/09/06 10:57:48;;;;;;;5.03;3.13;;;;;;;;;;5023917;28;20069;-60
2023/09/06 11:00:27;;;;;;;2.90;1.95;;;;;;;;;;5045866;28;20029;-60
2023/09/06 11:03:04;;;;;;;2.80;2.03;;;;;;;;;;5027019;28;20045;-58
2023/09/06 11:05:35;;;;;;;2.63;1.98;;;;;;;;;;5045428;28;20163;-59
2023/09/06 11:08:00;;;;;;;3.13;1.98;;;;;;;;;;5044171;28;20094;-59
2023/09/06 11:10:25;;;;;;;2.95;2.10;;;;;;;;;;5044144;28;20057;-58
2023/09/06 11:12:53;;;;;;;2.27;1.80;;;;;;;;;;5026389;28;20417;-58
2023/09/06 11:15:19;;;;;;;3.15;1.90;;;;;;;;;;5036815;28;20271;-58
2023/09/06 11:17:44;;;;;;;2.92;2.10;;;;;;;;;;5040121;28;20418;-60
2023/09/06 11:20:12;;;;;;;3.13;2.20;;;;;;;;;;5024732;28;20041;-59
2023/09/06 11:22:37;;;;;;;3.03;2.22;;;;;;;;;;5042966;28;20287;-59
2023/09/06 11:25:14;;;;;;;3.70;2.20;;;;;;;;;;5045050;28;20033;-59
2023/09/06 11:27:39;;;;;;;3.03;2.30;;;;;;;;;;5043909;28;20040;-59
2023/09/06 11:30:15;;;;;;;3.47;2.37;;;;;;;;;;5043533;28;20208;-59
2023/09/06 11:32:41;;;;;;;2.67;2.05;;;;;;;;;;5028163;28;20041;-59
2023/09/06 11:35:22;;;;;;;3.22;2.45;;;;;;;;;;5043397;28;20056;-59
2023/09/06 11:37:50;;;;;;;3.42;2.50;;;;;;;;;;5043547;28;20044;-59
2023/09/06 11:40:18;;;;;;;3.20;2.42;;;;;;;;;;5043100;28;20037;-59
2023/09/06 11:42:50;;;;;;;3.63;2.40;;;;;;;;;;5025048;28;20048;-59
2023/09/06 11:45:19;;;;;;;3.63;2.50;;;;;;;;;;5032078;28;20045;-60
2023/09/06 11:47:45;;;;;;;2.58;2.28;;;;;;;;;;5039054;28;20051;-60
2023/09/06 11:50:12;;;;;;;3.05;2.25;;;;;;;;;;5036383;28;20049;-59
2023/09/06 11:52:39;;;;;;;3.92;2.45;;;;;;;;;;5043168;28;20048;-59
2023/09/06 11:55:34;;;;;;;3.33;2.15;;;;;;;;;;5043321;28;20037;-60
2023/09/06 11:57:59;;;;;;;3.63;2.40;;;;;;;;;;5042818;28;20119;-60
2023/09/06 12:00:27;;;;;;;2.90;2.25;;;;;;;;;;5044261;28;20556;-59
2023/09/06 12:03:00;;;;;;;3.85;2.60;;;;;;;;;;5038732;28;20033;-61
2023/09/06 12:05:26;;;;;;;3.63;2.80;;;;;;;;;;5042021;28;20045;-59
2023/09/06 12:08:02;;;;;;;3.70;2.60;;;;;;;;;;5022829;28;20639;-60
2023/09/06 12:11:11;;;;;;;4.35;2.55;;;;;;;;;;5034465;28;20029;-59
2023/09/06 12:13:38;;;;;;;3.63;2.65;;;;;;;;;;5034378;28;20037;-58
2023/09/06 12:16:04;;;;;;;3.42;2.97;;;;;;;;;;5043825;28;20578;-61
2023/09/06 12:18:29;;;;;;;3.38;2.60;;;;;;;;;;5026084;28;20029;-60
2023/09/06 12:20:55;;;;;;;2.92;2.30;;;;;;;;;;5042363;28;20101;-59
2023/09/06 12:23:20;;;;;;;3.67;2.70;;;;;;;;;;5041664;28;20505;-59
2023/09/06 12:25:46;;;;;;;3.35;2.60;;;;;;;;;;5042796;28;20454;-59
2023/09/06 12:28:12;;;;;;;3.20;2.50;;;;;;;;;;5034025;28;20120;-59
2023/09/06 12:30:37;;;;;;;3.10;2.58;;;;;;;;;;5041078;28;20548;-59
2023/09/06 12:33:03;;;;;;;4.93;3.33;;;;;;;;;;5041272;28;20485;-58
2023/09/06 12:35:38;;;;;;;4.03;2.78;;;;;;;;;;5042359;28;20477;-60
2023/09/06 12:38:03;;;;;;;4.10;2.92;;;;;;;;;;5042560;28;20037;-60
2023/09/06 12:40:30;;;;;;;4.70;2.88;;;;;;;;;;5041385;28;20048;-59
2023/09/06 12:42:57;;;;;;;4.55;3.00;;;;;;;;;;5020427;28;20049;-61
2023/09/06 12:45:28;;;;;;;4.00;3.10;;;;;;;;;;5041738;28;20060;-59
2023/09/06 12:47:59;;;;;;;3.42;2.92;;;;;;;;;;5035350;28;20433;-59
2023/09/06 12:50:25;;;;;;;3.47;2.90;;;;;;;;;;5042014;28;20029;-60
2023/09/06 12:52:51;;;;;;;7.38;3.17;;;;;;;;;;5042009;28;20152;-59
2023/09/06 12:55:16;;;;;;;4.22;2.80;;;;;;;;;;5042687;28;20033;-60
2023/09/06 12:57:41;;;;;;;3.60;2.80;;;;;;;;;;5038165;28;20056;-59
2023/09/06 13:00:10;;;;;;;4.20;3.05;;;;;;;;;;5022362;28;20065;-59
2023/09/06 13:02:35;;;;;;;5.13;2.85;;;;;;;;;;5042112;28;20051;-59
2023/09/06 13:05:03;;;;;;;4.57;3.33;;;;;;;;;;5041373;28;20037;-59
2023/09/06 13:07:29;;;;;;;3.80;3.00;;;;;;;;;;5042496;28;20374;-58
2023/09/06 13:09:56;;;;;;;3.92;3.10;;;;;;;;;;5043405;28;20116;-60
2023/09/06 13:12:21;;;;;;;4.82;3.10;;;;;;;;;;5041748;28;20086;-59
2023/09/06 13:14:47;;;;;;;4.13;3.10;;;;;;;;;;5041646;28;20044;-59
2023/09/06 13:17:12;;;;;;;4.32;3.10;;;;;;;;;;5025055;28;20299;-60
2023/09/06 13:19:41;;;;;;;5.73;3.80;;;;;;;;;;5021902;28;20049;-58
2023/09/06 13:22:06;;;;;;;3.97;2.90;;;;;;;;;;5034944;28;20299;-60
2023/09/06 13:24:33;;;;;;;4.43;2.90;;;;;;;;;;5041266;28;20132;-59
2023/09/06 13:26:59;;;;;;;4.32;3.17;;;;;;;;;;5041700;28;20377;-60
2023/09/06 13:29:24;;;;;;;3.70;2.90;;;;;;;;;;5025792;28;20055;-60
2023/09/06 13:31:49;;;;;;;4.60;3.30;;;;;;;;;;5021218;28;20033;-61
2023/09/06 13:34:15;;;;;;;5.88;3.13;;;;;;;;;;5041045;28;20389;-59
2023/09/06 13:36:40;;;;;;;4.13;3.40;;;;;;;;;;5041548;28;20156;-59
2023/09/06 13:39:07;;;;;;;4.38;3.08;;;;;;;;;;5058166;22;20081;-58
2023/09/06 13:41:32;;;;;;;3.45;2.97;;;;;;;;;;5035425;28;20513;-57
2023/09/06 13:43:57;;;;;;;4.53;3.70;;;;;;;;;;5024983;28;20064;-57
2023/09/06 13:46:22;;;;;;;3.60;3.10;;;;;;;;;;5020438;28;20045;-57
2023/09/06 13:48:48;;;;;;;4.50;3.43;;;;;;;;;;5029063;28;20029;-56
2023/09/06 13:51:14;;;;;;;4.10;3.17;;;;;;;;;;5034516;28;20033;-57
2023/09/06 13:53:39;;;;;;;3.83;3.13;;;;;;;;;;5022412;28;20346;-56
2023/09/06 13:56:04;;;;;;;4.60;3.30;;;;;;;;;;5028094;28;20429;-56
2023/09/06 13:58:31;;;;;;;5.00;3.40;;;;;;;;;;5039147;22;20314;-63
2023/09/06 14:00:58;;;;;;;4.47;3.28;;;;;;;;;;5043596;28;20095;-63
2023/09/06 14:03:24;;;;;;;5.10;3.55;;;;;;;;;;5043677;28;20045;-63
2023/09/06 14:05:49;;;;;;;4.22;2.97;;;;;;;;;;5042479;28;20507;-63
2023/09/06 14:08:15;;;;;;;5.40;3.38;;;;;;;;;;5044638;28;20092;-63
2023/09/06 14:10:40;;;;;;;4.03;3.40;;;;;;;;;;5045752;28;20041;-63
2023/09/06 14:13:05;;;;;;;4.97;3.43;;;;;;;;;;5047663;28;20723;-62
2023/09/06 14:15:32;;;;;;;5.80;3.40;;;;;;;;;;5047823;28;20037;-62
2023/09/06 14:17:58;;;;;;;4.80;3.40;;;;;;;;;;5047712;28;20040;-63
2023/09/06 14:20:23;;;;;;;3.97;3.30;;;;;;;;;;5047462;28;20021;-63
2023/09/06 14:22:49;;;;;;;4.17;3.30;;;;;;;;;;5047453;28;20052;-63
2023/09/06 14:25:14;;;;;;;6.13;4.00;;;;;;;;;;5046024;28;20029;-64
2023/09/06 14:27:39;;;;;;;5.03;3.47;;;;;;;;;;5046443;28;20108;-63
2023/09/06 14:30:05;;;;;;;3.95;3.30;;;;;;;;;;5045784;28;20112;-63
2023/09/06 14:32:30;;;;;;;4.30;3.20;;;;;;;;;;5038768;28;20572;-64
2023/09/06 14:34:55;;;;;;;3.97;3.53;;;;;;;;;;5045581;28;20020;-64
2023/09/06 14:37:21;;;;;;;4.85;3.40;;;;;;;;;;5036194;28;20799;-64
2023/09/06 14:39:46;;;;;;;4.35;3.17;;;;;;;;;;5043825;28;20479;-63
2023/09/06 14:42:11;;;;;;;5.53;3.23;;;;;;;;;;5040243;28;20016;-63
2023/09/06 14:44:36;;;;;;;5.67;3.47;;;;;;;;;;5042304;28;20020;-67